Time;durP1;ratioP1;P1;durP2;ratioP2;P2;SDS_P1;SDS_P2;PMS_P1;PMS_P2;Temp;Humidity;BMP_temperature;BMP_pressure;BME280_temperature;BME280_humidity;BME280_pressure;Samples;Min_cycle;Max_cycle;Signal;HPM_P1;HPM_P2
2022/05/21 00:00:27;;;;;;;3.50;2.35;;;;;;;14.32;90.41;99007.78;5064020;28;20074;-69
2022/05/21 00:02:53;;;;;;;7.82;2.20;;;;;;;14.13;89.01;99004.75;5056563;28;20025;-69
2022/05/21 00:05:21;;;;;;;5.72;2.15;;;;;;;13.94;89.35;99013.22;5046196;28;20025;-69
2022/05/21 00:07:46;;;;;;;4.63;2.17;;;;;;;13.83;89.75;99015.31;5046221;28;20021;-69
2022/05/21 00:10:13;;;;;;;4.97;2.08;;;;;;;13.81;91.65;99025.06;5059232;28;20251;-69
2022/05/21 00:12:39;;;;;;;3.63;1.80;;;;;;;13.58;89.86;99015.09;5060106;28;20044;-69
2022/05/21 00:15:05;;;;;;;3.17;2.00;;;;;;;13.60;90.71;99033.56;5059491;28;20320;-69
2022/05/21 00:17:30;;;;;;;2.90;1.60;;;;;;;13.51;90.74;99033.78;5052416;28;20029;-69
2022/05/21 00:19:56;;;;;;;3.30;1.58;;;;;;;13.36;89.76;99034.13;5044768;28;20072;-69
2022/05/21 00:22:21;;;;;;;4.45;1.80;;;;;;;12.95;90.13;99033.28;5054725;28;20025;-69
2022/05/21 00:24:46;;;;;;;2.97;1.63;;;;;;;12.80;91.92;99038.94;5051310;28;20029;-69
2022/05/21 00:27:12;;;;;;;2.90;1.90;;;;;;;12.69;92.54;99046.19;5053277;28;20313;-69
2022/05/21 00:29:37;;;;;;;4.30;1.70;;;;;;;12.69;92.58;99050.63;5044351;28;20053;-69
2022/05/21 00:32:04;;;;;;;3.35;2.08;;;;;;;12.55;93.08;99043.00;5055821;28;20088;-69
2022/05/21 00:34:30;;;;;;;5.55;2.10;;;;;;;12.75;94.10;99043.44;5063698;28;20025;-69
2022/05/21 00:36:55;;;;;;;3.72;2.42;;;;;;;12.98;94.63;99049.06;5060764;28;20048;-69
2022/05/21 00:39:21;;;;;;;4.82;2.40;;;;;;;13.15;94.78;99055.78;5063018;28;20031;-69
2022/05/21 00:41:46;;;;;;;4.10;2.25;;;;;;;13.06;91.22;99061.31;5049870;28;20357;-69
2022/05/21 00:44:12;;;;;;;3.60;2.20;;;;;;;13.02;92.02;99053.44;5055343;28;20021;-69
2022/05/21 00:46:43;;;;;;;3.65;1.80;;;;;;;13.00;91.50;99057.88;5058801;28;20249;-69
2022/05/21 00:49:22;;;;;;;3.95;2.20;;;;;;;12.95;92.53;99059.69;5063147;28;20078;-69
2022/05/21 00:52:03;;;;;;;2.88;1.98;;;;;;;13.16;93.44;99052.25;5052272;28;20021;-69
2022/05/21 00:54:36;;;;;;;8.82;2.45;;;;;;;13.13;92.51;99058.47;5054921;28;20024;-69
2022/05/21 00:57:19;;;;;;;4.13;2.10;;;;;;;13.20;92.27;99067.13;5050311;28;20117;-69
2022/05/21 00:59:47;;;;;;;4.30;1.92;;;;;;;13.23;91.72;99059.13;5055762;28;20025;-69
2022/05/21 01:02:16;;;;;;;6.05;2.38;;;;;;;13.29;90.87;99069.56;5055635;28;20232;-69
2022/05/21 01:04:45;;;;;;;2.97;2.15;;;;;;;13.28;90.88;99067.81;5058766;28;20021;-69
2022/05/21 01:07:14;;;;;;;2.88;1.70;;;;;;;13.23;91.02;99065.31;5054984;28;20021;-69
2022/05/21 01:09:43;;;;;;;4.97;2.20;;;;;;;13.23;92.25;99069.69;5050428;28;20344;-69
2022/05/21 01:12:09;;;;;;;3.65;2.47;;;;;;;13.23;91.24;99073.22;5051922;28;20033;-69
2022/05/21 01:14:36;;;;;;;3.65;2.00;;;;;;;13.34;92.73;99075.59;5055983;28;20489;-69
2022/05/21 01:17:02;;;;;;;6.60;2.10;;;;;;;13.40;91.89;99078.09;5047510;28;20029;-69
2022/05/21 01:19:28;;;;;;;8.55;2.30;;;;;;;13.38;92.39;99079.94;5052310;28;20036;-69
2022/05/21 01:21:53;;;;;;;4.85;2.35;;;;;;;13.37;93.94;99079.06;5050940;28;20096;-69
2022/05/21 01:24:19;;;;;;;5.50;2.50;;;;;;;13.45;93.89;99086.81;5049334;28;20231;-69
2022/05/21 01:26:45;;;;;;;9.57;2.25;;;;;;;13.54;92.70;99086.59;5060154;28;20221;-69
2022/05/21 01:29:25;;;;;;;2.95;2.13;;;;;;;13.34;93.05;99084.41;5056517;28;20079;-69
2022/05/21 01:31:53;;;;;;;3.53;2.25;;;;;;;13.26;92.71;99091.66;5056627;28;20244;-69
2022/05/21 01:34:19;;;;;;;3.78;2.25;;;;;;;13.18;93.96;99095.34;5051707;28;20013;-69
2022/05/21 01:36:46;;;;;;;6.75;2.17;;;;;;;13.18;93.56;99098.88;5043636;28;20321;-69
2022/05/21 01:39:12;;;;;;;6.40;2.13;;;;;;;13.19;92.93;99100.63;5050476;28;20032;-69
2022/05/21 01:41:44;;;;;;;3.53;2.10;;;;;;;12.99;94.58;99098.44;5046475;28;20021;-69
2022/05/21 01:46:53;;;;;;;4.65;2.60;;;;;;;13.03;94.14;99100.09;5043508;28;20359;-69
2022/05/21 01:49:19;;;;;;;7.57;2.38;;;;;;;12.89;94.94;99107.41;5050724;28;20111;-69
2022/05/21 01:51:44;;;;;;;9.05;2.45;;;;;;;12.91;94.50;99094.19;5043568;28;20085;-69
2022/05/21 01:54:10;;;;;;;3.72;2.15;;;;;;;12.79;94.61;99097.91;5046449;28;20339;-69
2022/05/21 01:56:35;;;;;;;3.13;2.00;;;;;;;12.71;95.49;99102.50;5057973;28;20320;-69
2022/05/21 01:59:00;;;;;;;4.78;2.83;;;;;;;12.61;95.50;99100.97;5054750;28;20264;-69
2022/05/21 02:01:26;;;;;;;5.25;2.17;;;;;;;12.58;96.09;99111.59;5059174;28;20036;-69
2022/05/21 02:03:51;;;;;;;20.45;3.92;;;;;;;12.54;96.31;99109.91;5060580;28;20043;-69
2022/05/21 02:06:17;;;;;;;4.05;2.22;;;;;;;12.49;96.57;99106.47;5051160;28;20021;-69
2022/05/21 02:08:42;;;;;;;6.10;2.60;;;;;;;12.52;96.87;99113.47;5047373;28;20029;-69
2022/05/21 02:11:08;;;;;;;5.82;3.03;;;;;;;12.52;96.47;99111.69;5053233;28;20048;-69
2022/05/21 02:13:35;;;;;;;6.07;2.83;;;;;;;12.56;96.48;99110.72;5054057;28;20087;-69
2022/05/21 02:16:01;;;;;;;5.32;2.92;;;;;;;12.48;96.05;99112.66;5062831;28;20094;-69
2022/05/21 02:18:26;;;;;;;5.10;3.05;;;;;;;12.51;95.74;99114.38;5064647;28;20025;-69
2022/05/21 02:20:53;;;;;;;4.15;2.83;;;;;;;12.46;95.76;99109.19;5052525;28;20044;-69
2022/05/21 02:23:19;;;;;;;5.15;3.13;;;;;;;12.32;95.61;99116.50;5063486;28;20079;-69
2022/05/21 02:25:44;;;;;;;5.30;3.03;;;;;;;12.15;96.02;99108.00;5058743;28;20021;-69
2022/05/21 02:28:10;;;;;;;6.10;2.97;;;;;;;11.99;96.24;99103.88;5061503;28;20281;-69
2022/05/21 02:30:36;;;;;;;5.03;3.17;;;;;;;11.86;97.35;99112.91;5053716;28;20029;-69
2022/05/21 02:33:02;;;;;;;5.38;3.08;;;;;;;11.84;97.37;99114.72;5057626;28;20021;-69
2022/05/21 02:35:27;;;;;;;9.05;3.97;;;;;;;11.78;97.56;99109.56;5050215;28;20097;-69
2022/05/21 02:40:37;;;;;;;5.43;3.17;;;;;;;11.71;97.64;99115.78;5066522;28;20024;-69
2022/05/21 02:43:03;;;;;;;4.53;3.00;;;;;;;11.62;97.57;99117.72;5066492;28;20017;-69
2022/05/21 02:45:29;;;;;;;4.30;2.35;;;;;;;11.52;97.33;99119.59;5050858;28;20033;-69
2022/05/21 02:47:55;;;;;;;8.60;3.33;;;;;;;11.43;98.07;99122.38;5061661;28;20220;-69
2022/05/21 02:50:27;;;;;;;6.65;3.90;;;;;;;11.42;98.67;99125.03;5065664;28;20052;-69
2022/05/21 02:52:52;;;;;;;6.78;4.00;;;;;;;11.49;99.35;99114.41;5056118;28;20075;-69
2022/05/21 02:55:18;;;;;;;5.28;3.42;;;;;;;11.38;98.41;99116.31;5048206;28;20037;-69
2022/05/21 02:57:44;;;;;;;6.80;3.20;;;;;;;11.43;98.04;99125.03;5061007;28;20027;-69
2022/05/21 03:00:17;;;;;;;12.30;3.50;;;;;;;11.32;99.49;99124.28;5064686;28;20094;-69
2022/05/21 03:02:43;;;;;;;7.40;3.83;;;;;;;11.24;99.82;99126.19;5059462;28;20044;-69
2022/05/21 03:05:09;;;;;;;6.22;3.50;;;;;;;11.24;100.00;99133.22;5053582;28;20284;-69
2022/05/21 03:07:43;;;;;;;4.95;3.05;;;;;;;11.14;99.22;99135.13;5056487;28;20021;-69
2022/05/21 03:10:22;;;;;;;8.90;4.25;;;;;;;11.14;99.95;99129.84;5046015;28;20035;-69
2022/05/21 03:12:57;;;;;;;6.60;3.75;;;;;;;11.01;99.33;99130.88;5046410;28;20033;-69
2022/05/21 03:15:36;;;;;;;4.70;2.97;;;;;;;10.92;99.32;99133.66;5056012;28;20020;-69
2022/05/21 03:18:05;;;;;;;10.13;4.35;;;;;;;10.93;100.00;99127.47;5055441;28;20029;-69
2022/05/21 03:20:31;;;;;;;7.20;4.80;;;;;;;11.16;100.00;99128.03;5061310;28;20033;-69
2022/05/21 03:22:57;;;;;;;10.50;5.03;;;;;;;11.11;100.00;99129.00;5052449;28;20044;-69
2022/05/21 03:25:23;;;;;;;7.50;4.55;;;;;;;11.05;100.00;99134.34;5054283;28;20037;-69
2022/05/21 03:27:49;;;;;;;7.78;3.67;;;;;;;11.03;100.00;99129.09;5055153;28;20317;-69
2022/05/21 03:30:17;;;;;;;10.73;4.93;;;;;;;10.95;100.00;99130.97;5053772;28;20371;-69
2022/05/21 03:32:43;;;;;;;7.40;4.43;;;;;;;10.89;100.00;99128.41;5045700;28;20312;-69
2022/05/21 03:35:11;;;;;;;8.43;4.82;;;;;;;10.76;99.78;99132.09;5045302;28;20025;-69
2022/05/21 03:37:37;;;;;;;4.95;3.53;;;;;;;10.69;98.92;99130.41;5061157;28;20189;-69
2022/05/21 03:40:05;;;;;;;8.50;4.57;;;;;;;10.61;99.62;99129.66;5048768;28;20021;-69
2022/05/21 03:42:31;;;;;;;8.07;4.68;;;;;;;10.59;100.00;99131.41;5048250;28;20025;-69
2022/05/21 03:44:57;;;;;;;7.45;4.32;;;;;;;10.59;100.00;99134.03;5053390;28;20251;-69
2022/05/21 03:47:22;;;;;;;9.68;5.45;;;;;;;10.50;100.00;99132.38;5054983;28;20025;-69
2022/05/21 03:49:47;;;;;;;10.00;5.22;;;;;;;10.44;99.63;99123.72;5062618;28;20112;-69
2022/05/21 03:52:13;;;;;;;7.97;5.00;;;;;;;10.56;100.00;99139.34;5064597;28;20020;-69
2022/05/21 03:54:39;;;;;;;11.45;6.72;;;;;;;10.64;100.00;99137.50;5047874;28;20029;-69
2022/05/21 03:57:05;;;;;;;8.13;4.88;;;;;;;10.59;100.00;99142.81;5058433;28;20028;-69
2022/05/21 03:59:33;;;;;;;12.20;6.03;;;;;;;10.58;100.00;99148.09;5061812;28;20024;-69
2022/05/21 04:01:58;;;;;;;9.32;5.93;;;;;;;10.69;100.00;99148.84;5044983;28;20033;-69
2022/05/21 04:04:23;;;;;;;14.70;7.10;;;;;;;10.78;100.00;99151.38;5060189;28;20039;-69
2022/05/21 04:06:49;;;;;;;12.55;6.88;;;;;;;10.87;100.00;99146.00;5059045;28;20048;-69
2022/05/21 04:09:14;;;;;;;12.75;6.72;;;;;;;10.96;100.00;99145.88;5051738;28;20031;-69
2022/05/21 04:11:40;;;;;;;9.45;6.65;;;;;;;11.01;100.00;99148.47;5051196;28;20323;-69
2022/05/21 04:14:07;;;;;;;8.23;5.72;;;;;;;11.09;100.00;99152.72;5044833;28;20021;-69
2022/05/21 04:16:34;;;;;;;13.10;7.28;;;;;;;11.18;100.00;99154.38;5055518;28;20287;-69
2022/05/21 04:18:59;;;;;;;9.60;5.35;;;;;;;11.28;100.00;99164.75;5057727;28;20097;-69
2022/05/21 04:21:26;;;;;;;15.82;6.03;;;;;;;11.35;100.00;99160.25;5048480;28;20179;-69
2022/05/21 04:23:52;;;;;;;11.15;6.15;;;;;;;11.47;100.00;99158.34;5058303;28;20024;-69
2022/05/21 04:26:17;;;;;;;14.23;5.80;;;;;;;11.60;100.00;99157.25;5054261;28;20225;-69
2022/05/21 04:28:43;;;;;;;7.90;5.47;;;;;;;11.69;100.00;99164.19;5064074;28;20021;-69
2022/05/21 04:31:08;;;;;;;7.85;5.18;;;;;;;11.80;100.00;99154.38;5048415;28;20391;-69
2022/05/21 04:33:34;;;;;;;10.13;5.72;;;;;;;11.89;100.00;99159.47;5053174;28;20108;-69
2022/05/21 04:36:18;;;;;;;8.55;5.35;;;;;;;12.02;99.52;99159.25;5051264;28;20371;-69
2022/05/21 04:38:44;;;;;;;11.18;5.88;;;;;;;12.09;98.97;99174.06;5048604;28;20033;-69
2022/05/21 04:41:10;;;;;;;8.98;5.50;;;;;;;12.37;98.36;99170.06;5050715;28;20027;-69
2022/05/21 04:43:35;;;;;;;8.30;5.35;;;;;;;12.46;97.49;99167.25;5055269;28;20017;-69
2022/05/21 04:46:01;;;;;;;10.35;5.78;;;;;;;12.62;96.61;99163.44;5047835;28;20097;-69
2022/05/21 04:48:26;;;;;;;6.43;4.30;;;;;;;13.17;95.09;99170.28;5047968;28;20056;-69
2022/05/21 04:50:52;;;;;;;8.80;4.03;;;;;;;14.10;92.37;99165.44;5045212;28;20021;-69
2022/05/21 04:53:17;;;;;;;9.52;3.67;;;;;;;14.72;88.49;99175.31;5043999;28;20021;-69
2022/05/21 04:55:42;;;;;;;8.93;3.30;;;;;;;14.59;87.43;99169.47;5052693;28;20075;-69
2022/05/21 04:58:08;;;;;;;4.07;2.83;;;;;;;14.53;87.69;99176.72;5050117;28;20036;-69
2022/05/21 05:00:35;;;;;;;5.13;2.70;;;;;;;14.54;87.28;99165.19;5053657;28;20029;-69
2022/05/21 05:03:00;;;;;;;4.50;2.60;;;;;;;14.85;87.35;99171.41;5056389;28;20028;-69
2022/05/21 05:05:26;;;;;;;4.25;2.75;;;;;;;15.20;85.82;99173.94;5055859;28;20024;-69
2022/05/21 05:07:51;;;;;;;6.70;2.83;;;;;;;15.80;83.98;99182.72;5046201;28;20032;-69
2022/05/21 05:10:17;;;;;;;4.30;2.67;;;;;;;16.34;81.29;99186.22;5050907;28;20027;-69
2022/05/21 05:12:42;;;;;;;5.28;2.38;;;;;;;15.99;81.09;99178.56;5047024;28;20348;-69
2022/05/21 05:15:08;;;;;;;5.18;2.70;;;;;;;16.22;81.74;99186.63;5047779;28;20100;-69
2022/05/21 05:17:34;;;;;;;5.35;2.60;;;;;;;17.10;79.96;99195.06;5058772;28;20020;-69
2022/05/21 05:20:00;;;;;;;4.43;2.40;;;;;;;17.07;78.25;99188.09;5054992;28;20033;-69
2022/05/21 05:22:26;;;;;;;3.58;2.17;;;;;;;17.32;77.36;99195.13;5048066;28;20316;-69
2022/05/21 05:24:51;;;;;;;4.93;2.40;;;;;;;16.88;78.39;99183.47;5060296;28;20216;-69
2022/05/21 05:27:17;;;;;;;8.27;2.75;;;;;;;16.52;78.13;99196.25;5062734;28;20021;-69
2022/05/21 05:29:42;;;;;;;4.43;2.40;;;;;;;16.94;77.46;99189.44;5057528;28;20040;-69
2022/05/21 05:32:08;;;;;;;8.20;2.63;;;;;;;17.67;75.41;99192.03;5045304;28;21341;-69
2022/05/21 05:34:34;;;;;;;5.70;2.35;;;;;;;17.45;77.59;99196.44;5048118;28;20324;-69
2022/05/21 05:37:01;;;;;;;2.65;1.98;;;;;;;17.11;76.50;99192.34;5054451;28;20024;-69
2022/05/21 05:39:26;;;;;;;4.07;2.00;;;;;;;17.75;74.63;99200.59;5047195;28;20325;-69
2022/05/21 05:41:51;;;;;;;3.95;1.85;;;;;;;17.12;76.08;99193.25;5052668;28;20180;-69
2022/05/21 05:44:17;;;;;;;5.68;2.25;;;;;;;17.65;75.33;99199.22;5055701;28;20074;-69
2022/05/21 05:46:43;;;;;;;5.88;2.13;;;;;;;17.89;72.68;99198.25;5056691;28;20344;-69
2022/05/21 05:49:08;;;;;;;3.22;2.22;;;;;;;18.64;71.71;99195.16;5047831;28;20041;-69
2022/05/21 05:51:34;;;;;;;6.72;2.30;;;;;;;19.25;71.59;99204.84;5058593;28;20021;-69
2022/05/21 05:53:59;;;;;;;5.25;1.98;;;;;;;19.48;68.36;99193.16;5048894;28;20025;-69
2022/05/21 05:56:25;;;;;;;2.63;1.50;;;;;;;20.01;68.45;99197.72;5054594;28;20020;-69
2022/05/21 06:01:34;;;;;;;2.15;1.25;;;;;;;20.29;64.56;99194.56;5056561;28;20124;-69
2022/05/21 06:04:00;;;;;;;2.97;1.50;;;;;;;20.79;64.27;99192.91;5052135;28;20241;-69
2022/05/21 06:06:26;;;;;;;4.75;1.88;;;;;;;20.95;62.01;99193.88;5058168;28;20021;-69
2022/05/21 06:08:52;;;;;;;3.70;1.95;;;;;;;20.76;61.85;99187.72;5050080;28;20025;-69
2022/05/21 06:11:17;;;;;;;5.82;1.45;;;;;;;20.49;61.88;99183.75;5057740;28;20049;-69
2022/05/21 06:13:44;;;;;;;6.03;1.98;;;;;;;20.79;60.40;99196.41;5065238;28;20332;-69
2022/05/21 06:16:09;;;;;;;2.78;1.50;;;;;;;20.22;61.49;99185.13;5051227;28;20088;-69
2022/05/21 06:18:35;;;;;;;5.57;1.67;;;;;;;19.90;64.07;99183.97;5049347;28;20320;-69
2022/05/21 06:21:03;;;;;;;1.95;1.30;;;;;;;20.39;62.51;99178.00;5063597;28;20095;-69
2022/05/21 06:23:30;;;;;;;2.17;1.20;;;;;;;20.92;61.34;99184.13;5057857;28;20025;-69
2022/05/21 06:25:57;;;;;;;4.13;1.50;;;;;;;21.60;58.27;99193.00;5062408;28;20025;-69
2022/05/21 06:28:23;;;;;;;2.20;1.27;;;;;;;21.55;58.05;99189.72;5051932;28;20032;-70
2022/05/21 06:30:48;;;;;;;4.05;1.52;;;;;;;21.55;58.97;99184.38;5050991;28;20248;-70
2022/05/21 06:33:20;;;;;;;1.60;1.02;;;;;;;21.70;60.32;99191.56;5051647;28;20021;-69
2022/05/21 06:35:47;;;;;;;2.70;1.30;;;;;;;22.58;58.48;99188.28;5050015;28;20343;-69
2022/05/21 06:38:14;;;;;;;2.67;1.20;;;;;;;22.55;55.80;99181.28;5060776;28;20101;-69
2022/05/21 06:40:39;;;;;;;3.15;1.45;;;;;;;23.03;55.95;99182.81;5048177;28;20033;-69
2022/05/21 06:43:05;;;;;;;2.70;1.33;;;;;;;23.27;52.62;99193.00;5054702;28;20212;-69
2022/05/21 06:45:32;;;;;;;4.28;1.60;;;;;;;23.33;53.02;99191.75;5054153;28;20329;-69
2022/05/21 06:48:07;;;;;;;3.03;1.30;;;;;;;23.12;55.04;99193.00;5057541;28;20316;-69
2022/05/21 06:50:33;;;;;;;2.33;1.10;;;;;;;23.52;53.59;99197.69;5057472;28;20104;-69
2022/05/21 06:52:58;;;;;;;2.38;1.42;;;;;;;23.54;53.27;99206.50;5046056;28;20052;-69
2022/05/21 06:55:24;;;;;;;3.45;1.15;;;;;;;23.98;53.80;99209.97;5056160;28;20339;-70
2022/05/21 06:57:51;;;;;;;3.25;1.55;;;;;;;23.96;51.01;99208.34;5048295;28;20039;-70
2022/05/21 07:00:21;;;;;;;2.90;1.27;;;;;;;24.53;51.74;99200.03;5045999;28;20033;-70
2022/05/21 07:02:48;;;;;;;5.65;1.30;;;;;;;24.85;50.44;99204.13;5045860;28;20048;-70
2022/05/21 07:07:58;;;;;;;2.75;1.52;;;;;;;23.80;49.83;99200.38;5059188;28;20047;-71
2022/05/21 07:10:26;;;;;;;3.72;1.60;;;;;;;24.31;52.72;99205.09;5065792;28;20313;-71
2022/05/21 07:12:52;;;;;;;5.13;1.52;;;;;;;24.95;48.77;99199.84;5064036;28;20032;-71
2022/05/21 07:15:18;;;;;;;2.35;1.40;;;;;;;25.09;48.96;99205.13;5048041;28;20049;-71
2022/05/21 07:17:45;;;;;;;2.60;1.10;;;;;;;25.37;48.75;99197.88;5046808;28;20068;-71
2022/05/21 07:20:15;;;;;;;5.28;1.50;;;;;;;25.68;48.29;99203.66;5059166;28;20029;-71
2022/05/21 07:22:46;;;;;;;2.88;1.60;;;;;;;24.87;49.29;99194.09;5061643;28;20042;-71
2022/05/21 07:25:14;;;;;;;2.88;1.60;;;;;;;24.01;50.82;99185.56;5051116;28;20025;-71
2022/05/21 07:27:40;;;;;;;2.90;1.30;;;;;;;24.25;51.16;99192.03;5060502;28;20025;-71
2022/05/21 07:30:07;;;;;;;3.63;1.60;;;;;;;25.02;50.11;99200.25;5048505;28;20143;-71
2022/05/21 07:32:33;;;;;;;5.20;1.23;;;;;;;25.43;49.46;99197.44;5045472;28;20021;-70
2022/05/21 07:35:07;;;;;;;5.82;1.60;;;;;;;25.45;48.27;99196.34;5054142;28;20028;-70
2022/05/21 07:37:33;;;;;;;3.03;1.45;;;;;;;26.02;46.64;99202.13;5050753;28;20232;-70
2022/05/21 07:39:59;;;;;;;1.33;1.17;;;;;;;25.95;47.31;99198.13;5061266;28;20036;-70
2022/05/21 07:42:25;;;;;;;1.63;1.00;;;;;;;26.20;48.84;99206.19;5054216;28;20036;-70
2022/05/21 07:44:50;;;;;;;8.07;1.90;;;;;;;26.45;48.24;99206.09;5050888;28;20027;-70
2022/05/21 07:47:16;;;;;;;1.85;1.00;;;;;;;25.65;47.59;99208.44;5050013;28;20021;-70
2022/05/21 07:49:41;;;;;;;2.85;1.27;;;;;;;24.12;49.01;99199.19;5061621;28;20104;-70
2022/05/21 07:52:07;;;;;;;5.20;1.30;;;;;;;23.59;52.00;99203.53;5051508;28;20343;-70
2022/05/21 07:54:33;;;;;;;3.17;1.30;;;;;;;24.16;51.01;99202.53;5060077;28;20068;-70
2022/05/21 07:57:01;;;;;;;4.70;1.73;;;;;;;24.57;51.31;99206.91;5055176;28;20017;-71
2022/05/21 07:59:27;;;;;;;4.78;1.83;;;;;;;24.82;49.89;99196.25;5054794;28;20320;-70
2022/05/21 08:01:54;;;;;;;3.58;1.30;;;;;;;25.39;48.70;99209.38;5054035;28;20041;-69
2022/05/21 08:04:19;;;;;;;3.92;1.38;;;;;;;24.94;49.64;99190.03;5053215;28;20072;-69
2022/05/21 08:06:45;;;;;;;3.10;1.10;;;;;;;24.49;49.52;99193.09;5045675;28;20021;-69
2022/05/21 08:09:10;;;;;;;5.63;1.00;;;;;;;23.06;51.86;99201.44;5045967;28;20337;-69
2022/05/21 08:11:37;;;;;;;2.28;0.93;;;;;;;22.12;54.00;99197.22;5045490;28;20079;-69
2022/05/21 08:14:03;;;;;;;3.42;1.02;;;;;;;23.73;52.69;99201.69;5045145;28;20047;-69
2022/05/21 08:16:29;;;;;;;1.70;1.10;;;;;;;23.49;51.62;99192.50;5050006;28;20328;-69
2022/05/21 08:18:54;;;;;;;3.53;1.40;;;;;;;24.64;52.62;99202.88;5051521;28;20025;-69
2022/05/21 08:21:20;;;;;;;4.90;1.10;;;;;;;25.12;49.25;99204.91;5055011;28;20052;-69
2022/05/21 08:29:13;;;;;;;4.20;1.35;;;;;;;23.98;51.49;99188.44;5059678;28;20058;-69
2022/05/21 08:31:38;;;;;;;4.90;1.20;;;;;;;24.08;51.21;99186.88;5061033;28;20025;-69
2022/05/21 08:34:04;;;;;;;2.35;0.90;;;;;;;24.38;51.03;99184.88;5044337;28;20022;-69
2022/05/21 08:36:30;;;;;;;2.03;0.85;;;;;;;24.02;51.73;99176.56;5044585;28;20021;-69
2022/05/21 08:38:55;;;;;;;0.90;0.80;;;;;;;23.98;51.49;99185.75;5060539;28;20036;-69
2022/05/21 08:41:23;;;;;;;2.05;0.90;;;;;;;23.99;51.86;99192.88;5049051;28;20209;-69
2022/05/21 08:44:01;;;;;;;3.50;1.15;;;;;;;24.92;47.03;99183.88;5055260;28;20362;-69
2022/05/21 08:46:32;;;;;;;3.60;1.05;;;;;;;25.12;47.65;99186.06;5050927;28;20037;-69
2022/05/21 08:49:06;;;;;;;6.15;1.75;;;;;;;23.95;51.34;99167.13;5054725;28;20083;-69
2022/05/21 08:51:55;;;;;;;1.27;0.80;;;;;;;23.57;51.59;99163.31;5048446;28;20533;-68
2022/05/21 08:54:29;;;;;;;4.20;1.25;;;;;;;23.82;50.25;99168.84;5045521;28;20120;-69
2022/05/21 08:56:56;;;;;;;39.67;26.50;;;;;;;24.77;49.96;99167.94;5061852;28;20025;-69
2022/05/21 08:59:30;;;;;;;12.75;6.13;;;;;;;25.62;48.44;99176.28;5054587;28;20032;-69
2022/05/21 09:01:55;;;;;;;3.80;1.50;;;;;;;26.29;46.26;99173.13;5061752;28;20036;-69
2022/05/21 09:04:23;;;;;;;2.55;1.10;;;;;;;26.20;46.70;99163.00;5054463;28;20322;-69
2022/05/21 09:06:52;;;;;;;3.42;1.20;;;;;;;25.73;46.26;99165.56;5062531;28;20031;-69
2022/05/21 09:09:29;;;;;;;3.55;1.10;;;;;;;26.01;46.06;99168.91;5059352;28;20331;-70
2022/05/21 09:12:20;;;;;;;1.38;0.70;;;;;;;24.86;47.79;99176.22;5043697;28;20374;-69
2022/05/21 09:14:50;;;;;;;5.07;1.00;;;;;;;25.71;48.82;99170.22;5048751;28;20141;-69
2022/05/21 09:17:23;;;;;;;1.95;1.20;;;;;;;25.08;49.96;99162.13;5049642;28;20021;-69
2022/05/21 09:20:01;;;;;;;2.45;0.90;;;;;;;24.25;51.42;99154.38;5053047;28;20209;-69
2022/05/21 09:22:27;;;;;;;2.83;0.80;;;;;;;24.08;52.69;99154.59;5056850;28;20071;-69
2022/05/21 09:24:58;;;;;;;4.20;1.05;;;;;;;24.97;49.54;99157.47;5048485;28;20080;-69
2022/05/21 09:27:26;;;;;;;5.38;1.10;;;;;;;25.14;48.28;99154.50;5050121;28;20310;-69
2022/05/21 09:29:53;;;;;;;4.13;0.80;;;;;;;23.75;49.56;99143.34;5053224;28;20021;-69
2022/05/21 09:32:22;;;;;;;3.75;1.10;;;;;;;23.25;52.67;99134.91;5057900;28;20028;-69
2022/05/21 09:35:28;;;;;;;4.80;1.00;;;;;;;22.65;52.31;99128.78;5056408;28;20095;-69
2022/05/21 09:37:53;;;;;;;5.57;0.95;;;;;;;23.08;53.79;99143.13;5041680;28;20089;-69
2022/05/21 09:40:37;;;;;;;1.48;0.80;;;;;;;23.41;52.80;99130.31;5047585;28;20056;-69
2022/05/21 09:46:28;;;;;;;5.47;1.50;;;;;;;22.93;52.03;99119.91;5054839;28;20102;-69
2022/05/21 09:49:11;;;;;;;1.88;1.00;;;;;;;22.61;52.87;99121.88;5053899;28;20041;-69
2022/05/21 09:51:36;;;;;;;2.63;0.80;;;;;;;24.36;52.14;99124.91;5052324;28;20340;-69
2022/05/21 09:54:19;;;;;;;2.40;0.73;;;;;;;23.61;50.86;99107.56;5053955;28;20021;-69
2022/05/21 09:56:52;;;;;;;5.97;2.15;;;;;;;23.41;48.46;99108.81;5047370;28;20021;-69
2022/05/21 09:59:20;;;;;;;4.13;2.28;;;;;;;23.18;52.33;99117.44;5054580;28;20121;-69
2022/05/21 10:01:49;;;;;;;4.28;1.80;;;;;;;23.88;52.51;99117.38;5055756;28;20063;-69
2022/05/21 10:04:32;;;;;;;3.38;1.58;;;;;;;24.73;49.69;99126.00;5053144;28;20032;-69
2022/05/21 10:07:09;;;;;;;3.25;1.20;;;;;;;25.27;50.36;99132.91;5051933;28;20013;-69
2022/05/21 10:12:39;;;;;;;4.20;0.98;;;;;;;24.79;48.54;99115.69;5052649;28;20024;-69
2022/05/21 10:15:12;;;;;;;1.15;0.90;;;;;;;24.85;48.52;99115.25;5056603;28;20080;-69
2022/05/21 10:17:44;;;;;;;2.22;1.20;;;;;;;25.19;47.69;99109.22;5051334;28;20025;-69
2022/05/21 10:20:21;;;;;;;2.10;0.93;;;;;;;25.51;48.00;99119.56;5049187;28;20062;-69
2022/05/21 10:23:01;;;;;;;1.05;0.77;;;;;;;25.54;47.07;99119.34;5065965;28;20044;-69
2022/05/21 10:25:54;;;;;;;1.70;1.08;;;;;;;24.34;49.08;99124.16;5047649;28;20075;-69
2022/05/21 10:28:44;;;;;;;2.33;1.30;;;;;;;25.27;49.46;99117.63;5053059;28;20029;-69
2022/05/21 10:31:16;;;;;;;6.55;1.33;;;;;;;24.96;49.54;99111.78;5060461;28;20096;-69
2022/05/21 10:34:23;;;;;;;2.33;0.80;;;;;;;25.34;48.89;99109.13;5057229;28;20028;-69
2022/05/21 10:37:18;;;;;;;1.98;0.80;;;;;;;24.65;47.44;99107.69;5054196;28;20057;-69
2022/05/21 10:39:58;;;;;;;4.95;1.30;;;;;;;24.40;47.44;99104.94;5050771;28;20347;-69
2022/05/21 10:42:36;;;;;;;1.85;0.63;;;;;;;24.99;46.20;99111.59;5056868;28;20089;-69
2022/05/21 10:45:08;;;;;;;3.90;0.60;;;;;;;24.87;47.90;99104.38;5056737;28;20220;-69
2022/05/21 10:48:12;;;;;;;2.08;0.98;;;;;;;25.73;47.27;99114.34;5052752;28;20284;-69
2022/05/21 10:50:55;;;;;;;1.88;0.65;;;;;;;26.09;45.05;99100.84;5045539;28;20198;-69
2022/05/21 10:53:46;;;;;;;3.85;2.10;;;;;;;26.11;45.07;99101.63;5060755;28;20083;-69
2022/05/21 10:56:11;;;;;;;2.37;1.00;;;;;;;25.17;45.68;99089.63;5055442;28;20112;-69
2022/05/21 10:58:43;;;;;;;3.30;0.88;;;;;;;25.02;47.43;99090.69;5063915;28;20025;-69
2022/05/21 11:01:33;;;;;;;1.40;0.60;;;;;;;25.68;44.62;99094.94;5062100;28;20031;-69
2022/05/21 11:04:26;;;;;;;2.15;0.93;;;;;;;25.98;46.74;99095.41;5055636;28;20025;-69
2022/05/21 11:07:08;;;;;;;1.77;0.90;;;;;;;26.25;45.21;99096.03;5061346;28;20075;-69
2022/05/21 11:09:51;;;;;;;3.50;0.98;;;;;;;26.48;43.27;99081.66;5061629;28;20035;-69
2022/05/21 11:12:32;;;;;;;5.07;1.10;;;;;;;26.47;42.60;99085.31;5058357;28;20324;-69
2022/05/21 11:15:08;;;;;;;6.68;1.45;;;;;;;26.61;46.17;99088.72;5061371;28;20074;-69
2022/05/21 11:17:57;;;;;;;2.85;0.82;;;;;;;25.84;43.41;99076.69;5067836;28;20062;-69
2022/05/21 11:20:32;;;;;;;1.50;0.80;;;;;;;25.18;47.05;99085.06;5060736;28;20032;-69
2022/05/21 11:23:09;;;;;;;8.30;3.20;;;;;;;25.43;46.25;99089.63;5064017;28;20071;-69
2022/05/21 11:25:46;;;;;;;1.92;0.60;;;;;;;25.45;46.20;99083.13;5059595;28;20036;-69
2022/05/21 11:28:48;;;;;;;3.33;0.90;;;;;;;25.43;43.88;99084.22;5059865;28;20081;-69
2022/05/21 11:37:22;;;;;;;1.23;0.77;;;;;;;24.14;47.24;99068.13;5068856;28;20069;-69
2022/05/21 11:39:54;;;;;;;;;;;;;;;24.47;47.87;99071.25;5058396;28;20063;-69
2022/05/21 11:42:22;;;;;;;2.08;0.60;;;;;;;24.59;46.59;99073.09;5059654;28;20089;-69
2022/05/21 11:45:08;;;;;;;1.00;0.57;;;;;;;24.31;47.03;99070.56;5069531;28;20017;-69
2022/05/21 11:47:33;;;;;;;2.65;0.70;;;;;;;23.91;49.99;99066.09;5055310;28;20344;-69
2022/05/21 11:50:01;;;;;;;2.45;0.80;;;;;;;24.01;51.38;99072.59;5052117;28;20099;-69
2022/05/21 11:52:27;;;;;;;0.98;0.63;;;;;;;23.53;47.20;99054.28;5056427;28;20087;-69
2022/05/21 11:55:09;;;;;;;4.28;0.70;;;;;;;22.99;48.72;99055.97;5057915;28;20278;-69
2022/05/21 11:57:39;;;;;;;1.98;0.77;;;;;;;23.00;49.72;99060.38;5059336;28;20432;-69
2022/05/21 12:00:07;;;;;;;1.52;0.60;;;;;;;23.09;50.16;99054.44;5054549;28;20025;-69
2022/05/21 12:02:35;;;;;;;1.45;0.70;;;;;;;22.91;51.65;99049.34;5051512;28;20026;-69
2022/05/21 12:05:01;;;;;;;2.00;0.60;;;;;;;22.87;47.97;99042.44;5050064;28;20017;-69
2022/05/21 12:07:46;;;;;;;2.85;0.82;;;;;;;22.62;50.60;99058.34;5064127;28;20035;-69
2022/05/21 12:10:23;;;;;;;2.38;0.70;;;;;;;22.56;50.14;99048.00;5047444;28;20025;-69